Miley Memorial field
KBPI : now visible

Airfield :











YOU CAN JOIN US ON...

 
LOGIN :

Register | Disclaimer

   EN    FR    IT 

 









Legend :    VFR   Marginal VFR   IFR   Intensive IFR   Very Intensive IFR
Visi :
Ceiling :
>= 8 km
>= 3000ft
5 to 8 km
1000 to 3000 ft
1500m to 5 km
500 to 1000 ft
800 to 1500m
200 to 500 ft
< 800m
< 200 ft
Symbols :   Thunderstorms  Fog  Heavy snow  Heavy precipitations  Wind > 20 kt






- Airport Elevation : 6990 ft


KBPI - Miley Memorial field

CURRENT METAR :
  • 232353Z AUTO 01007KT 10SM BKN060 M02/M13 A2984 RMK AO2 SLP151 T10221133 10011 21044 53006

EXPIRED METARs :
  • 232253Z AUTO 00000KT 10SM FEW055 01/M14 A2982 RMK AO2 SLP135 T00061139
  • 232153Z AUTO 24003KT 10SM FEW075 SCT100 01/M14 A2982 RMK AO2 SLP136 T00061144

TAF KBPI
Valid from the 24 at 00:00 until the 25 at 00:00 UTC


232327Z 2400/2424 34008KT P6SM BKN100
FM240600 34008KT P6SM SCT150
KZLC FIR / North America



MET'MAP, your aeronautical weather chart ! - Copyright ORBIFLY December 2007 - Disclaimer

ORBIFLY MET'MAP TEAM :

Programming & Development : Alexandra Zaïnal
Concept & original design : Baudouin d'Aumeries
Assistance for programming : Marc-Olivier Méhu
Technical & hardware support : Manuel Goepfert

Contact : metmap@orbifly.com




SOURCES & CREDITS :

   NOAA       Earth
Advisory